createdAt,value
2023-03-26T11:02:39.268Z,2.20
2023-03-26T11:04:29.710Z,1.20
2023-03-26T11:06:08.909Z,2.00
2023-03-26T11:07:54.122Z,3.20
2023-03-26T11:09:51.959Z,2.00
2023-03-26T11:12:25.756Z,3.60
2023-03-26T11:14:07.238Z,3.20
2023-03-26T11:15:50.794Z,3.60
2023-03-26T11:17:46.372Z,2.00
2023-03-26T11:19:34.706Z,2.00
2023-03-26T11:21:20.762Z,2.00
2023-03-26T11:23:15.550Z,2.80
2023-03-26T11:25:21.160Z,2.40
2023-03-26T11:26:56.358Z,1.20
2023-03-26T11:29:03.488Z,1.00
2023-03-26T11:30:41.648Z,3.20
2023-03-26T11:32:23.653Z,2.40
2023-03-26T11:34:09.546Z,2.40
2023-03-26T11:35:44.236Z,2.00
2023-03-26T11:37:42.848Z,3.20
2023-03-26T11:39:21.850Z,2.00
2023-03-26T11:40:55.419Z,2.00
2023-03-26T11:42:46.206Z,2.60
2023-03-26T11:44:38.886Z,2.00
2023-03-26T11:46:15.571Z,3.00
2023-03-26T11:47:53.010Z,2.40
2023-03-26T11:49:24.997Z,1.40
2023-03-26T11:51:01.770Z,3.00
2023-03-26T11:53:03.498Z,2.00
2023-03-26T11:55:01.173Z,3.00
2023-03-26T11:56:34.050Z,2.00
2023-03-26T11:58:11.129Z,2.00
2023-03-26T11:59:57.508Z,3.00
2023-03-26T12:02:01.157Z,1.60
2023-03-26T12:03:33.542Z,1.80
2023-03-26T12:05:15.465Z,1.00
2023-03-26T12:06:57.815Z,1.80
2023-03-26T12:08:39.013Z,2.40
2023-03-26T12:10:22.519Z,3.00
2023-03-26T12:11:59.771Z,1.20
2023-03-26T12:14:10.181Z,2.60
2023-03-26T12:15:43.388Z,1.00
2023-03-26T12:17:35.471Z,2.00
2023-03-26T12:19:23.036Z,4.00
2023-03-26T12:21:23.423Z,1.80
2023-03-26T12:22:59.816Z,2.00
2023-03-26T12:24:36.590Z,0.40
2023-03-26T12:26:15.210Z,2.00
2023-03-26T12:28:17.628Z,2.60
2023-03-26T12:29:55.165Z,1.20
2023-03-26T12:31:42.637Z,1.00
2023-03-26T12:33:26.416Z,3.00
2023-03-26T12:35:07.579Z,1.00
2023-03-26T12:36:39.607Z,2.00
2023-03-26T12:38:35.642Z,1.80
2023-03-26T12:40:27.597Z,1.00
2023-03-26T12:44:54.889Z,2.20
2023-03-26T12:44:58.900Z,2.00
2023-03-26T12:47:54.123Z,2.20
2023-03-26T12:48:27.191Z,3.00
2023-03-26T12:49:59.305Z,2.00
2023-03-26T12:52:16.015Z,1.60
2023-03-26T12:54:00.140Z,2.60
2023-03-26T12:55:49.291Z,1.40
2023-03-26T12:57:26.709Z,2.00
2023-03-26T12:59:26.322Z,2.00
2023-03-26T13:01:23.899Z,8.60
2023-03-26T13:03:24.343Z,19.40
2023-03-26T13:05:35.046Z,41.60
2023-03-26T13:07:07.873Z,49.20
2023-03-26T13:08:52.904Z,51.40
2023-03-26T13:11:00.752Z,47.80
2023-03-26T13:12:35.794Z,55.80
2023-03-26T13:14:26.413Z,61.80
2023-03-26T13:16:01.223Z,59.60
2023-03-26T13:18:08.033Z,68.00
2023-03-26T13:19:44.187Z,72.25
2023-03-26T13:21:16.838Z,75.25
2023-03-26T13:22:52.428Z,76.00
2023-03-26T13:24:48.674Z,72.25
2023-03-26T13:26:45.483Z,78.50
2023-03-26T13:28:40.558Z,81.25
2023-03-26T13:30:28.550Z,85.75
2023-03-26T13:32:24.967Z,82.50
2023-03-26T13:33:56.904Z,90.50
2023-03-26T13:36:32.399Z,91.25
2023-03-26T13:38:11.296Z,103.25
2023-03-26T13:39:57.083Z,104.60
2023-03-26T13:41:36.060Z,105.40
2023-03-26T13:43:29.878Z,119.80
2023-03-26T13:45:19.867Z,115.80
2023-03-26T13:46:56.715Z,112.40
2023-03-26T13:48:51.953Z,107.20
2023-03-26T13:50:33.013Z,114.80
2023-03-26T13:52:16.585Z,112.25
2023-03-26T13:53:52.602Z,112.60
2023-03-26T13:55:50.510Z,116.40
2023-03-26T13:57:29.670Z,114.40
2023-03-26T13:59:03.792Z,114.80
2023-03-26T14:01:02.514Z,120.40
2023-03-26T14:02:37.995Z,99.40
2023-03-26T14:04:32.834Z,107.20
2023-03-26T14:06:14.653Z,118.25
2023-03-26T14:08:06.041Z,108.40
2023-03-26T14:09:54.679Z,117.20
2023-03-26T14:11:50.969Z,97.00
2023-03-26T14:13:33.455Z,100.60
2023-03-26T14:15:07.151Z,104.00
2023-03-26T14:16:44.532Z,114.50
2023-03-26T14:18:38.026Z,118.60
2023-03-26T14:20:39.213Z,114.20
2023-03-26T14:22:40.674Z,102.80
2023-03-26T14:24:17.502Z,101.00
2023-03-26T14:26:01.399Z,85.25
2023-03-26T14:27:56.836Z,88.50
2023-03-26T14:29:56.880Z,91.25
2023-03-26T14:31:45.625Z,89.00
2023-03-26T14:33:57.326Z,87.50
2023-03-26T14:35:54.948Z,78.00
2023-03-26T14:37:29.540Z,87.75
2023-03-26T14:39:22.414Z,94.00
2023-03-26T14:41:35.699Z,91.50
2023-03-26T14:43:42.204Z,93.75
2023-03-26T14:46:05.524Z,93.00
2023-03-26T14:47:55.697Z,109.40
2023-03-26T14:50:05.243Z,109.00
2023-03-26T14:52:06.341Z,97.00
2023-03-26T14:53:40.488Z,97.80
2023-03-26T14:55:40.314Z,112.00
2023-03-26T14:57:24.268Z,121.00
2023-03-26T14:59:21.893Z,98.00
2023-03-26T15:01:21.823Z,110.40
2023-03-26T15:03:08.251Z,126.75
2023-03-26T15:04:54.208Z,113.20
2023-03-26T15:06:43.307Z,117.60
2023-03-26T15:08:18.305Z,135.00
2023-03-26T15:10:15.384Z,127.25
2023-03-26T15:12:13.711Z,131.50
2023-03-26T15:14:33.618Z,128.25
2023-03-26T15:16:42.166Z,132.00
2023-03-26T15:18:38.838Z,152.25
2023-03-26T15:20:42.749Z,149.50
2023-03-26T15:22:14.581Z,134.25
2023-03-26T15:24:23.940Z,135.75
2023-03-26T15:26:37.478Z,133.00
2023-03-26T15:28:37.186Z,166.00
2023-03-26T15:30:55.795Z,150.50
2023-03-26T15:32:33.674Z,147.75
2023-03-26T15:34:33.875Z,156.00
2023-03-26T15:36:21.710Z,152.75
2023-03-26T15:38:30.354Z,155.75
2023-03-26T15:40:40.506Z,161.75
2023-03-26T15:42:15.784Z,151.00
2023-03-26T15:44:24.138Z,160.75
2023-03-26T15:45:56.600Z,157.00
2023-03-26T15:47:40.332Z,151.00
2023-03-26T15:50:01.865Z,171.50
2023-03-26T15:51:47.283Z,163.50
2023-03-26T15:53:33.932Z,161.00
2023-03-26T15:55:36.732Z,170.25
2023-03-26T15:57:30.700Z,156.75
2023-03-26T15:59:28.438Z,170.25
2023-03-26T16:01:38.268Z,159.75
2023-03-26T16:03:10.733Z,153.50
2023-03-26T16:04:54.147Z,175.50
2023-03-26T16:06:31.435Z,165.50
2023-03-26T16:08:28.489Z,157.75
2023-03-26T16:10:29.168Z,143.75
2023-03-26T16:12:26.043Z,170.75
2023-03-26T16:14:41.230Z,155.50
2023-03-26T16:16:41.225Z,145.00
2023-03-26T16:18:22.914Z,144.75
2023-03-26T16:20:29.058Z,145.00
2023-03-26T16:22:28.103Z,141.75
2023-03-26T16:24:03.082Z,168.75
2023-03-26T16:26:15.574Z,182.00
2023-03-26T16:28:29.494Z,146.25
2023-03-26T16:30:01.435Z,252.50
2023-03-26T16:31:38.268Z,160.00
2023-03-26T16:33:39.169Z,140.00
2023-03-26T16:35:18.263Z,124.75
2023-03-26T16:36:51.585Z,118.75
2023-03-26T16:38:25.042Z,121.50
2023-03-26T16:39:57.049Z,135.00
2023-03-26T16:41:32.780Z,134.75
2023-03-26T16:43:18.418Z,137.25
2023-03-26T16:44:55.767Z,134.75
2023-03-26T16:46:36.925Z,140.00
2023-03-26T16:48:57.324Z,136.00
2023-03-26T16:50:48.775Z,145.50
2023-03-26T16:53:09.621Z,157.00
2023-03-26T16:54:53.393Z,133.00
2023-03-26T16:56:33.589Z,145.50
2023-03-26T16:58:39.534Z,130.50
2023-03-26T17:00:16.723Z,140.00
2023-03-26T17:02:00.062Z,132.75
2023-03-26T17:04:01.864Z,127.50
2023-03-26T17:05:38.550Z,137.00
2023-03-26T17:07:15.162Z,125.25
2023-03-26T17:09:11.673Z,135.00
2023-03-26T17:11:04.409Z,128.00
2023-03-26T17:12:49.150Z,121.75
2023-03-26T17:14:32.991Z,134.25
2023-03-26T17:16:40.925Z,121.75
2023-03-26T17:18:40.119Z,122.25
2023-03-26T17:20:17.243Z,142.75
2023-03-26T17:22:41.377Z,128.50
2023-03-26T17:24:33.927Z,130.50
2023-03-26T17:27:01.554Z,139.00
2023-03-26T17:28:58.577Z,147.75
2023-03-26T17:31:33.738Z,133.25
2023-03-26T17:33:23.785Z,145.00
2023-03-26T17:35:00.774Z,148.00
2023-03-26T17:36:42.423Z,152.50
2023-03-26T17:38:21.830Z,156.50
2023-03-26T17:40:09.617Z,137.50
2023-03-26T17:42:13.384Z,159.50
2023-03-26T17:43:52.466Z,151.75
2023-03-26T17:45:34.698Z,158.00
2023-03-26T17:47:17.470Z,141.25
2023-03-26T17:48:58.498Z,159.25
2023-03-26T17:50:44.278Z,149.75
2023-03-26T17:52:49.708Z,148.00
2023-03-26T17:54:29.211Z,137.25
2023-03-26T17:56:15.211Z,132.50
2023-03-26T17:57:50.430Z,139.75
2023-03-26T17:59:25.584Z,139.25
2023-03-26T18:01:10.707Z,141.25
2023-03-26T18:02:48.283Z,125.67
2023-03-26T18:08:14.160Z,144.00
2023-03-26T18:10:39.241Z,120.50
2023-03-26T18:12:29.798Z,125.50
2023-03-26T18:14:27.913Z,120.50
2023-03-26T18:16:21.022Z,102.60
2023-03-26T18:17:55.592Z,93.60
2023-03-26T18:19:28.712Z,105.60
2023-03-26T18:21:07.244Z,104.00
2023-03-26T18:22:39.126Z,97.50
2023-03-26T18:24:18.442Z,98.25
2023-03-26T18:25:57.472Z,96.50
2023-03-26T18:27:37.063Z,82.75
2023-03-26T18:29:30.615Z,92.00
2023-03-26T18:31:08.917Z,102.50
2023-03-26T18:32:51.010Z,101.60
2023-03-26T18:34:24.528Z,99.20
2023-03-26T18:36:02.135Z,99.60
2023-03-26T18:37:35.881Z,107.60
2023-03-26T18:39:17.854Z,97.20
2023-03-26T18:41:34.362Z,106.60
2023-03-26T18:43:34.434Z,103.60
2023-03-26T18:45:26.831Z,102.60
2023-03-26T18:46:58.996Z,112.60
2023-03-26T18:48:32.824Z,97.80
2023-03-26T18:52:31.532Z,112.50
2023-03-26T18:54:04.837Z,106.40
2023-03-26T18:55:39.982Z,98.80
2023-03-26T18:57:22.154Z,101.60
2023-03-26T18:59:02.590Z,101.00
2023-03-26T19:00:36.775Z,106.40
2023-03-26T19:04:08.837Z,119.50
2023-03-26T19:05:40.761Z,118.50
2023-03-26T19:07:24.727Z,118.75
2023-03-26T19:08:57.645Z,121.00
2023-03-26T19:11:02.843Z,123.75
2023-03-26T19:12:36.714Z,125.75
2023-03-26T19:14:17.872Z,127.25
2023-03-26T19:15:51.301Z,131.75
2023-03-26T19:17:25.239Z,123.75
2023-03-26T19:18:58.677Z,124.50
2023-03-26T19:20:42.488Z,119.00
2023-03-26T19:22:17.706Z,125.75
2023-03-26T19:23:51.069Z,128.00
2023-03-26T19:25:30.681Z,118.00
2023-03-26T19:27:03.215Z,121.50
2023-03-26T19:28:42.503Z,136.00
2023-03-26T19:30:29.652Z,137.75
2023-03-26T19:32:04.493Z,122.25
2023-03-26T19:34:22.730Z,113.60
2023-03-26T19:36:19.796Z,122.00
2023-03-26T19:37:55.313Z,117.00
2023-03-26T19:39:40.459Z,133.50
2023-03-26T19:41:21.743Z,126.00
2023-03-26T19:42:53.680Z,134.75
2023-03-26T19:44:51.804Z,138.00
2023-03-26T19:46:24.495Z,138.25
2023-03-26T19:48:11.745Z,142.50
2023-03-26T19:49:50.051Z,128.75
2023-03-26T19:51:32.344Z,133.25
2023-03-26T19:53:25.673Z,135.25
2023-03-26T19:55:24.438Z,134.00
2023-03-26T19:57:01.259Z,139.50
2023-03-26T19:58:42.594Z,130.25
2023-03-26T20:00:16.399Z,118.25
2023-03-26T20:02:18.728Z,131.25
2023-03-26T20:03:52.821Z,126.75
2023-03-26T20:05:41.164Z,118.25
2023-03-26T20:07:39.465Z,118.75
2023-03-26T20:09:12.384Z,111.00
2023-03-26T20:10:51.061Z,122.00
2023-03-26T20:12:24.206Z,116.50
2023-03-26T20:13:56.416Z,120.40
2023-03-26T20:15:30.441Z,110.60
2023-03-26T20:17:02.434Z,110.00
2023-03-26T20:18:35.129Z,107.60
2023-03-26T20:20:21.966Z,105.20
2023-03-26T20:21:54.747Z,101.25
2023-03-26T20:23:29.092Z,108.60
2023-03-26T20:25:01.162Z,108.40
2023-03-26T20:26:33.233Z,110.60
2023-03-26T20:28:06.025Z,119.20
2023-03-26T20:29:37.961Z,130.20
2023-03-26T20:31:15.918Z,112.20
2023-03-26T20:32:51.605Z,121.00
2023-03-26T20:34:49.272Z,112.80
2023-03-26T20:36:33.368Z,116.60
2023-03-26T20:38:09.828Z,109.20
2023-03-26T20:39:42.103Z,107.20
2023-03-26T20:41:24.164Z,105.80
2023-03-26T20:42:58.450Z,103.40
2023-03-26T20:44:30.930Z,101.60
2023-03-26T20:46:04.095Z,116.80
2023-03-26T20:47:37.749Z,98.40
2023-03-26T20:49:15.957Z,110.00
2023-03-26T20:50:50.769Z,96.20
2023-03-26T20:52:25.744Z,95.80
2023-03-26T20:53:57.597Z,94.75
2023-03-26T20:55:29.548Z,93.00
2023-03-26T20:57:02.535Z,93.25
2023-03-26T20:58:34.631Z,96.50
2023-03-26T21:00:24.863Z,85.25
2023-03-26T21:01:57.920Z,86.75
2023-03-26T21:03:30.340Z,80.00
2023-03-26T21:05:03.061Z,81.75
2023-03-26T21:06:37.235Z,86.25
2023-03-26T21:08:34.928Z,79.25
2023-03-26T21:10:10.894Z,79.50
2023-03-26T21:12:08.600Z,79.75
2023-03-26T21:13:43.940Z,77.00
2023-03-26T21:15:40.736Z,77.75
2023-03-26T21:17:19.869Z,73.75
2023-03-26T21:18:52.270Z,70.75
2023-03-26T21:20:25.469Z,68.25
2023-03-26T21:22:09.384Z,66.00
2023-03-26T21:23:45.137Z,70.50
2023-03-26T21:25:25.880Z,71.25
2023-03-26T21:27:31.393Z,68.75
2023-03-26T21:29:07.698Z,67.75
2023-03-26T21:30:44.256Z,68.50
2023-03-26T21:32:21.900Z,64.50
2023-03-26T21:33:55.387Z,62.00
2023-03-26T21:35:27.650Z,62.25
2023-03-26T21:37:01.074Z,64.20
2023-03-26T21:38:33.345Z,61.40
2023-03-26T21:40:17.864Z,60.60
2023-03-26T21:42:05.494Z,61.20
2023-03-26T21:43:37.740Z,56.60
2023-03-26T21:45:10.264Z,55.80
2023-03-26T21:46:46.741Z,57.80
2023-03-26T21:48:19.762Z,52.40
2023-03-26T21:49:52.423Z,53.00
2023-03-26T21:51:24.662Z,53.80
2023-03-26T21:53:00.360Z,50.20
2023-03-26T21:54:32.814Z,48.20
2023-03-26T21:56:46.973Z,47.40
2023-03-26T21:58:24.825Z,56.00
2023-03-26T22:02:45.750Z,50.60
2023-03-26T22:04:44.083Z,47.00
2023-03-26T22:06:19.683Z,51.00
2023-03-26T22:08:01.959Z,49.60
2023-03-26T22:09:36.308Z,39.40
2023-03-26T22:11:09.704Z,37.40
2023-03-26T22:13:06.593Z,33.40
2023-03-26T22:14:38.873Z,43.00
2023-03-26T22:16:11.814Z,50.80
2023-03-26T22:17:44.351Z,56.40
2023-03-26T22:19:17.109Z,65.50
2023-03-26T22:20:56.610Z,65.75
2023-03-26T22:22:29.162Z,65.00
2023-03-26T22:24:07.196Z,71.00
2023-03-26T22:25:40.984Z,62.00
2023-03-26T22:27:17.875Z,62.25
2023-03-26T22:28:49.937Z,71.75
2023-03-26T22:30:22.554Z,68.00
2023-03-26T22:31:58.995Z,67.75
2023-03-26T22:33:31.540Z,70.75
